sensor_id;sensor_type;location;lat;lon;timestamp;P1;P2;P0
45788;PMS7003;31492;54.856;26.318;2023-06-22T01:21:56;22.6;21.1;16.1
45788;PMS7003;31492;54.856;26.318;2023-06-22T01:27:00;25;22.6;16.8
45788;PMS7003;31492;54.856;26.318;2023-06-22T01:31:48;26.3;22.8;16.9
45788;PMS7003;31492;54.856;26.318;2023-06-22T01:36:48;25;22.1;16
45788;PMS7003;31492;54.856;26.318;2023-06-22T01:41:48;25.3;22.8;16.9
45788;PMS7003;31492;54.856;26.318;2023-06-22T01:47:02;25.5;23.4;17.4
45788;PMS7003;31492;54.856;26.318;2023-06-22T01:51:56;26.7;23.5;17.1
45788;PMS7003;31492;54.856;26.318;2023-06-22T01:56:58;24.7;22.4;16.5
45788;PMS7003;31492;54.856;26.318;2023-06-22T02:02:19;27;23.5;16.8
45788;PMS7003;31492;54.856;26.318;2023-06-22T02:07:09;25.7;23.2;17
45788;PMS7003;31492;54.856;26.318;2023-06-22T02:12:06;24.5;22.3;16.3
45788;PMS7003;31492;54.856;26.318;2023-06-22T02:17:20;25.1;22.2;16.6
45788;PMS7003;31492;54.856;26.318;2023-06-22T02:22:04;25.1;23.1;17
45788;PMS7003;31492;54.856;26.318;2023-06-22T02:26:48;25.9;22.4;16.8
45788;PMS7003;31492;54.856;26.318;2023-06-22T02:31:48;26.2;22.9;16.8
45788;PMS7003;31492;54.856;26.318;2023-06-22T02:37:32;25.7;23.2;16.8
45788;PMS7003;31492;54.856;26.318;2023-06-22T02:42:06;26.6;22.6;16.7
45788;PMS7003;31492;54.856;26.318;2023-06-22T02:46:48;24.8;20.9;15.1
45788;PMS7003;31492;54.856;26.318;2023-06-22T02:52:20;24.2;22;16
45788;PMS7003;31492;54.856;26.318;2023-06-22T02:56:48;26.2;23.2;16.6
45788;PMS7003;31492;54.856;26.318;2023-06-22T03:01:48;23.8;20.5;15.6
45788;PMS7003;31492;54.856;26.318;2023-06-22T03:06:48;23.1;20.4;15.5
45788;PMS7003;31492;54.856;26.318;2023-06-22T03:12:06;23.2;21.1;15.6
45788;PMS7003;31492;54.856;26.318;2023-06-22T03:17:22;24.5;22;16.6
45788;PMS7003;31492;54.856;26.318;2023-06-22T03:22:12;25.3;22.3;16.5
45788;PMS7003;31492;54.856;26.318;2023-06-22T03:26:48;24.9;22.7;16.4
45788;PMS7003;31492;54.856;26.318;2023-06-22T03:31:48;24.8;20.9;15.6
45788;PMS7003;31492;54.856;26.318;2023-06-22T03:36:58;24.4;22;16.6
45788;PMS7003;31492;54.856;26.318;2023-06-22T03:41:58;24.1;21.6;16.5
45788;PMS7003;31492;54.856;26.318;2023-06-22T03:47:30;24.7;21.7;16.9
45788;PMS7003;31492;54.856;26.318;2023-06-22T03:51:48;22.1;20.1;15
45788;PMS7003;31492;54.856;26.318;2023-06-22T03:56:48;25.5;22.3;16.4
45788;PMS7003;31492;54.856;26.318;2023-06-22T04:01:56;24.6;22.1;16.7
45788;PMS7003;31492;54.856;26.318;2023-06-22T04:06:48;23.3;21.6;16.2
45788;PMS7003;31492;54.856;26.318;2023-06-22T04:11:48;23.5;21.6;16.1
45788;PMS7003;31492;54.856;26.318;2023-06-22T04:16:57;23.5;21.7;16.4
45788;PMS7003;31492;54.856;26.318;2023-06-22T04:22:20;26.5;23.4;17.3
45788;PMS7003;31492;54.856;26.318;2023-06-22T04:26:48;25.2;22.5;16.7
45788;PMS7003;31492;54.856;26.318;2023-06-22T04:32:02;26.9;24;17.1
45788;PMS7003;31492;54.856;26.318;2023-06-22T04:36:48;25.3;23.2;17.4
45788;PMS7003;31492;54.856;26.318;2023-06-22T04:41:48;26.7;23.5;17.6
45788;PMS7003;31492;54.856;26.318;2023-06-22T04:46:59;26.9;24.3;18.1
45788;PMS7003;31492;54.856;26.318;2023-06-22T04:51:48;26;22.6;16.7
45788;PMS7003;31492;54.856;26.318;2023-06-22T04:56:48;25.4;23;17.7
45788;PMS7003;31492;54.856;26.318;2023-06-22T05:02:02;27.5;24.3;17.6
45788;PMS7003;31492;54.856;26.318;2023-06-22T05:07:28;26.3;24.3;18.1
45788;PMS7003;31492;54.856;26.318;2023-06-22T05:11:56;26.6;23.9;17.8
45788;PMS7003;31492;54.856;26.318;2023-06-22T05:16:58;27.6;25;18.3
45788;PMS7003;31492;54.856;26.318;2023-06-22T05:22:14;29;26.6;19.6
45788;PMS7003;31492;54.856;26.318;2023-06-22T05:27:14;25.4;23.4;17.8
45788;PMS7003;31492;54.856;26.318;2023-06-22T05:32:04;27.8;25.2;18.8
45788;PMS7003;31492;54.856;26.318;2023-06-22T05:36:48;29.2;26.5;19.2
45788;PMS7003;31492;54.856;26.318;2023-06-22T05:41:48;30.3;27.2;19.2
45788;PMS7003;31492;54.856;26.318;2023-06-22T05:46:48;27.8;25.1;18.6
45788;PMS7003;31492;54.856;26.318;2023-06-22T05:51:58;30.4;27;19.3
45788;PMS7003;31492;54.856;26.318;2023-06-22T05:56:58;31;26.6;19.3
45788;PMS7003;31492;54.856;26.318;2023-06-22T06:01:58;28;25.1;18.3
45788;PMS7003;31492;54.856;26.318;2023-06-22T06:06:48;27.8;25.7;18.8
45788;PMS7003;31492;54.856;26.318;2023-06-22T06:12:22;29.4;26.4;19.7
45788;PMS7003;31492;54.856;26.318;2023-06-22T06:16:48;28.6;25.8;19.4
45788;PMS7003;31492;54.856;26.318;2023-06-22T06:21:48;27.6;25.6;18.9
45788;PMS7003;31492;54.856;26.318;2023-06-22T06:27:06;28;25.9;19
45788;PMS7003;31492;54.856;26.318;2023-06-22T08:41:48;25.1;22.6;17.2
45788;PMS7003;31492;54.856;26.318;2023-06-22T08:46:48;25.5;23.6;18.1
45788;PMS7003;31492;54.856;26.318;2023-06-22T08:52:30;26.5;24.6;18.5
45788;PMS7003;31492;54.856;26.318;2023-06-22T08:57:02;27.7;25.7;19.1
45788;PMS7003;31492;54.856;26.318;2023-06-22T09:01:48;28.7;26.2;19.3
45788;PMS7003;31492;54.856;26.318;2023-06-22T09:06:48;28.6;26.4;19.4
45788;PMS7003;31492;54.856;26.318;2023-06-22T09:11:48;29.5;27.4;20.4
45788;PMS7003;31492;54.856;26.318;2023-06-22T09:16:48;28.3;26.1;19.2
45788;PMS7003;31492;54.856;26.318;2023-06-22T09:22:12;29.2;26.7;19.3
45788;PMS7003;31492;54.856;26.318;2023-06-22T09:26:48;28.1;26.7;19.9
45788;PMS7003;31492;54.856;26.318;2023-06-22T09:31:48;29.1;26.5;19.7
45788;PMS7003;31492;54.856;26.318;2023-06-22T09:36:56;28.2;25.9;18.9
45788;PMS7003;31492;54.856;26.318;2023-06-22T09:42:06;29;27.6;19.9
45788;PMS7003;31492;54.856;26.318;2023-06-22T09:46:58;29.2;26.7;19.6
45788;PMS7003;31492;54.856;26.318;2023-06-22T09:52:04;30;27.8;20.3
45788;PMS7003;31492;54.856;26.318;2023-06-22T10:02:10;30;27.4;20.3
45788;PMS7003;31492;54.856;26.318;2023-06-22T10:11:56;28.6;26.1;18.9
45788;PMS7003;31492;54.856;26.318;2023-06-22T10:22:16;30.2;27.4;20.3
45788;PMS7003;31492;54.856;26.318;2023-06-22T10:26:48;29.4;27;20.2
45788;PMS7003;31492;54.856;26.318;2023-06-22T10:32:00;30.9;27.9;20
45788;PMS7003;31492;54.856;26.318;2023-06-22T10:36:48;30.6;28;20.4
45788;PMS7003;31492;54.856;26.318;2023-06-22T10:42:11;28.7;26;19.5
45788;PMS7003;31492;54.856;26.318;2023-06-22T10:47:08;26.6;24.9;18.4
45788;PMS7003;31492;54.856;26.318;2023-06-22T10:57:04;28.5;26.7;19.5
45788;PMS7003;31492;54.856;26.318;2023-06-22T11:01:48;29.8;26.3;19.1
